createdAt,value
2018-04-26T00:01:18.259Z,9.40
2018-04-26T00:03:45.762Z,9.30
2018-04-26T00:06:13.254Z,9.30
2018-04-26T00:08:40.734Z,9.30
2018-04-26T00:11:13.176Z,9.40
2018-04-26T00:13:40.662Z,9.40
2018-04-26T00:16:08.382Z,9.40
2018-04-26T00:18:35.876Z,9.40
2018-04-26T00:21:03.412Z,9.40
2018-04-26T00:23:30.883Z,9.40
2018-04-26T00:25:59.223Z,9.40
2018-04-26T00:28:26.692Z,9.40
2018-04-26T00:30:54.192Z,9.40
2018-04-26T00:33:21.683Z,9.40
2018-04-26T00:35:50.071Z,9.40
2018-04-26T00:38:18.348Z,9.40
2018-04-26T00:40:46.067Z,9.40
2018-04-26T00:43:13.544Z,9.40
2018-04-26T00:45:41.021Z,9.40
2018-04-26T00:48:08.670Z,9.40
2018-04-26T00:50:36.139Z,9.30
2018-04-26T00:53:04.386Z,9.30
2018-04-26T00:55:31.862Z,9.20
2018-04-26T00:57:59.331Z,9.30
2018-04-26T01:00:27.611Z,9.20
2018-04-26T01:02:55.078Z,9.20
2018-04-26T01:05:22.547Z,9.20
2018-04-26T01:07:50.035Z,9.20
2018-04-26T01:10:17.502Z,9.20
2018-04-26T01:12:45.187Z,9.20
2018-04-26T01:15:12.667Z,9.10
2018-04-26T01:17:40.911Z,9.00
2018-04-26T01:20:08.545Z,9.00
2018-04-26T01:22:36.221Z,9.00
2018-04-26T01:25:03.716Z,9.00
2018-04-26T01:27:31.178Z,9.00
2018-04-26T01:29:58.643Z,8.90
2018-04-26T01:32:26.110Z,8.90
2018-04-26T01:34:53.578Z,9.00
2018-04-26T01:37:32.768Z,9.00
2018-04-26T01:40:00.295Z,9.00
2018-04-26T01:42:47.547Z,8.90
2018-04-26T01:45:15.009Z,8.90
2018-04-26T01:47:42.531Z,8.90
2018-04-26T01:50:10.720Z,8.80
2018-04-26T01:52:43.368Z,8.80
2018-04-26T01:55:10.850Z,8.70
2018-04-26T01:57:38.320Z,8.60
2018-04-26T02:00:05.779Z,8.50
2018-04-26T02:02:33.235Z,8.40
2018-04-26T02:05:00.786Z,8.40
2018-04-26T02:07:28.275Z,8.30
2018-04-26T02:09:55.771Z,8.20
2018-04-26T02:12:23.468Z,8.20
2018-04-26T02:14:50.945Z,8.20
2018-04-26T02:17:19.220Z,8.20
2018-04-26T02:19:47.262Z,8.20
2018-04-26T02:22:14.809Z,8.20
2018-04-26T02:24:42.937Z,8.20
2018-04-26T02:27:10.427Z,8.20
2018-04-26T02:29:37.935Z,8.20
2018-04-26T02:32:06.190Z,8.20
2018-04-26T02:34:33.685Z,8.20
2018-04-26T02:37:01.384Z,8.20
2018-04-26T02:39:28.867Z,8.20
2018-04-26T02:41:57.033Z,8.20
2018-04-26T02:44:24.511Z,8.20
2018-04-26T02:46:52.758Z,8.20
2018-04-26T02:49:21.130Z,8.20
2018-04-26T02:51:48.609Z,8.20
2018-04-26T02:54:16.345Z,8.20
2018-04-26T02:56:43.914Z,8.20
2018-04-26T02:59:11.387Z,8.20
2018-04-26T03:01:39.775Z,8.20
2018-04-26T03:04:07.248Z,8.20
2018-04-26T03:06:35.494Z,8.20
2018-04-26T03:09:03.026Z,8.20
2018-04-26T03:11:30.708Z,8.30
2018-04-26T03:13:58.179Z,8.30
2018-04-26T03:16:26.564Z,8.30
2018-04-26T03:18:54.040Z,8.30
2018-04-26T03:21:22.598Z,8.30
2018-04-26T03:23:50.071Z,8.30
2018-04-26T03:26:17.581Z,8.30
2018-04-26T03:28:45.675Z,8.30
2018-04-26T03:31:13.235Z,8.40
2018-04-26T03:33:40.688Z,8.40
2018-04-26T03:36:08.148Z,8.30
2018-04-26T03:38:35.617Z,8.40
2018-04-26T03:41:03.239Z,8.40
2018-04-26T03:43:30.712Z,8.40
2018-04-26T03:45:58.206Z,8.40
2018-04-26T03:48:25.668Z,8.40
2018-04-26T03:50:53.130Z,8.30
2018-04-26T03:53:20.603Z,8.30
2018-04-26T03:55:48.176Z,8.20
2018-04-26T03:58:15.668Z,8.10
2018-04-26T04:00:54.933Z,8.10
2018-04-26T04:03:34.315Z,8.10
2018-04-26T04:06:13.522Z,8.10
2018-04-26T04:08:41.203Z,8.20
2018-04-26T04:11:09.654Z,8.20
2018-04-26T04:13:37.882Z,8.20
2018-04-26T04:16:05.520Z,8.30
2018-04-26T04:18:32.999Z,8.30
2018-04-26T04:21:20.300Z,8.30
2018-04-26T04:23:47.763Z,8.30
2018-04-26T04:26:15.239Z,8.30
2018-04-26T04:28:43.160Z,8.40
2018-04-26T04:31:10.768Z,8.40
2018-04-26T04:33:38.288Z,8.40
2018-04-26T04:36:05.751Z,8.40
2018-04-26T04:38:33.237Z,8.40
2018-04-26T04:41:00.771Z,8.40
2018-04-26T04:43:28.270Z,8.40
2018-04-26T04:45:55.787Z,8.40
2018-04-26T04:48:23.264Z,8.40
2018-04-26T04:50:50.735Z,8.40
2018-04-26T04:53:19.520Z,8.50
2018-04-26T04:55:46.987Z,8.50
2018-04-26T04:58:14.488Z,8.50
2018-04-26T05:00:41.978Z,8.50
2018-04-26T05:03:09.464Z,8.60
2018-04-26T05:05:36.937Z,8.60
2018-04-26T05:08:04.660Z,8.60
2018-04-26T05:10:32.154Z,8.70
2018-04-26T05:13:00.459Z,8.70
2018-04-26T05:15:27.924Z,8.70
2018-04-26T05:17:55.419Z,8.70
2018-04-26T05:20:22.890Z,8.70
2018-04-26T05:22:50.642Z,8.80
2018-04-26T05:25:18.895Z,8.80
2018-04-26T05:27:46.399Z,8.80
2018-04-26T05:30:13.909Z,8.80
2018-04-26T05:32:41.595Z,8.90
2018-04-26T05:35:09.094Z,8.90
2018-04-26T05:37:37.331Z,9.00
2018-04-26T05:40:04.820Z,9.00
2018-04-26T05:42:32.685Z,9.00
2018-04-26T05:45:00.932Z,9.00
2018-04-26T05:47:28.468Z,9.00
2018-04-26T05:49:55.953Z,9.10
2018-04-26T05:52:23.444Z,9.10
2018-04-26T05:54:51.699Z,9.00
2018-04-26T05:57:19.189Z,9.00
2018-04-26T05:59:46.691Z,9.10
2018-04-26T06:02:14.322Z,9.20
2018-04-26T06:04:41.846Z,9.30
2018-04-26T06:07:09.309Z,9.30
2018-04-26T06:09:37.003Z,9.40
2018-04-26T06:12:04.643Z,9.50
2018-04-26T06:14:32.929Z,9.60
2018-04-26T06:17:00.647Z,9.50
2018-04-26T06:19:28.152Z,9.60
2018-04-26T06:22:00.751Z,9.70
2018-04-26T06:24:28.274Z,9.80
2018-04-26T06:26:57.340Z,9.90
2018-04-26T06:29:24.819Z,9.90
2018-04-26T06:31:58.263Z,9.90
2018-04-26T06:34:25.731Z,9.90
2018-04-26T06:36:53.250Z,10.00
2018-04-26T06:39:20.723Z,10.10
2018-04-26T06:41:53.935Z,10.30
2018-04-26T06:44:21.413Z,10.30
2018-04-26T06:46:48.915Z,10.30
2018-04-26T06:49:16.442Z,10.40
2018-04-26T06:51:44.096Z,10.40
2018-04-26T06:54:11.709Z,10.50
2018-04-26T06:56:39.196Z,10.50
2018-04-26T06:59:06.683Z,10.60
2018-04-26T07:01:35.165Z,10.60
2018-04-26T07:04:02.663Z,10.60
2018-04-26T07:09:02.001Z,10.70
2018-04-26T07:11:29.598Z,10.80
2018-04-26T07:13:57.137Z,10.90
2018-04-26T07:16:24.603Z,10.90
2018-04-26T07:18:52.120Z,11.00
2018-04-26T07:21:20.003Z,11.10
2018-04-26T07:23:47.487Z,11.10
2018-04-26T07:26:14.985Z,11.10
2018-04-26T07:28:42.447Z,11.20
2018-04-26T07:31:10.696Z,11.20
2018-04-26T07:33:38.155Z,11.20
2018-04-26T07:36:06.505Z,11.10
2018-04-26T07:38:34.821Z,11.10
2018-04-26T07:41:02.320Z,11.00
2018-04-26T07:43:29.817Z,11.00
2018-04-26T07:45:57.292Z,10.90
2018-04-26T07:48:24.780Z,10.90
2018-04-26T07:50:52.285Z,10.90
2018-04-26T07:53:19.787Z,10.90
2018-04-26T07:55:47.259Z,11.00
2018-04-26T07:58:14.735Z,11.10
2018-04-26T08:00:42.203Z,11.10
2018-04-26T08:03:09.691Z,11.20
2018-04-26T08:05:38.727Z,11.30
2018-04-26T08:08:06.195Z,11.30
2018-04-26T08:10:33.710Z,11.40
2018-04-26T08:13:01.208Z,11.40
2018-04-26T08:15:28.870Z,11.50
2018-04-26T08:17:56.359Z,11.60
2018-04-26T08:20:23.863Z,11.70
2018-04-26T08:22:53.606Z,11.80
2018-04-26T08:25:21.948Z,11.80
2018-04-26T08:27:50.208Z,12.00
2018-04-26T08:30:17.707Z,12.00
2018-04-26T08:32:45.275Z,12.10
2018-04-26T08:35:12.807Z,12.30
2018-04-26T08:37:40.287Z,12.40
2018-04-26T08:40:09.768Z,12.40
2018-04-26T08:42:37.261Z,12.40
2018-04-26T08:45:04.759Z,12.30
2018-04-26T08:47:32.241Z,12.30
2018-04-26T08:49:59.733Z,12.20
2018-04-26T08:52:27.585Z,12.20
2018-04-26T08:54:55.035Z,12.10
2018-04-26T08:57:22.545Z,12.20
2018-04-26T08:59:50.035Z,12.40
2018-04-26T09:02:17.736Z,12.60
2018-04-26T09:04:45.363Z,12.80
2018-04-26T09:07:12.864Z,12.80
2018-04-26T09:09:40.329Z,12.90
2018-04-26T09:12:08.840Z,12.90
2018-04-26T09:14:36.340Z,12.90
2018-04-26T09:17:03.826Z,12.90
2018-04-26T09:19:32.551Z,12.90
2018-04-26T09:22:05.111Z,12.90
2018-04-26T09:24:32.777Z,13.10
2018-04-26T09:27:00.257Z,13.20
2018-04-26T09:29:27.771Z,13.30
2018-04-26T09:31:55.259Z,13.30
2018-04-26T09:34:22.816Z,13.30
2018-04-26T09:36:50.963Z,13.30
2018-04-26T09:39:19.292Z,13.10
2018-04-26T09:41:46.756Z,13.10
2018-04-26T09:44:14.231Z,12.90
2018-04-26T09:46:41.732Z,12.90
2018-04-26T09:49:09.270Z,12.80
2018-04-26T09:51:37.507Z,12.60
2018-04-26T09:54:04.992Z,12.50
2018-04-26T09:56:32.474Z,12.50
2018-04-26T09:59:00.098Z,12.60
2018-04-26T10:01:27.728Z,12.70
2018-04-26T10:03:55.234Z,12.80
2018-04-26T10:06:29.942Z,13.20
2018-04-26T10:08:57.426Z,13.20
2018-04-26T10:11:25.173Z,13.40
2018-04-26T10:13:52.644Z,13.60
2018-04-26T10:16:20.350Z,13.70
2018-04-26T10:18:47.971Z,13.90
2018-04-26T10:21:16.528Z,14.00
2018-04-26T10:23:44.020Z,14.00
2018-04-26T10:28:43.851Z,13.80
2018-04-26T10:31:11.562Z,13.60
2018-04-26T10:33:39.055Z,13.50
2018-04-26T10:36:06.972Z,13.30
2018-04-26T10:38:35.560Z,13.10
2018-04-26T10:41:03.960Z,13.00
2018-04-26T10:43:31.480Z,12.80
2018-04-26T10:45:59.606Z,12.80
2018-04-26T10:48:27.126Z,12.70
2018-04-26T10:50:54.688Z,12.80
2018-04-26T10:53:22.150Z,12.80
2018-04-26T10:55:49.643Z,12.70
2018-04-26T10:58:17.337Z,12.70
2018-04-26T11:00:44.890Z,12.80
2018-04-26T11:03:12.419Z,12.80
2018-04-26T11:05:39.886Z,12.80
2018-04-26T11:08:07.427Z,12.90
2018-04-26T11:10:35.025Z,12.90
2018-04-26T11:13:02.547Z,13.10
2018-04-26T11:15:30.940Z,13.30
2018-04-26T11:17:58.371Z,13.30
2018-04-26T11:20:25.884Z,13.50
2018-04-26T11:22:53.375Z,13.60
2018-04-26T11:25:20.855Z,13.60
2018-04-26T11:27:49.123Z,13.60
2018-04-26T11:30:16.675Z,13.50
2018-04-26T11:32:44.202Z,13.40
2018-04-26T11:35:11.683Z,13.20
2018-04-26T11:37:39.156Z,13.10
2018-04-26T11:40:07.275Z,13.00
2018-04-26T11:42:34.748Z,13.00
2018-04-26T11:45:02.227Z,12.90
2018-04-26T11:47:29.711Z,12.70
2018-04-26T11:49:57.230Z,12.60
2018-04-26T11:52:25.414Z,12.40
2018-04-26T11:54:53.431Z,12.40
2018-04-26T11:57:21.913Z,12.40
2018-04-26T11:59:49.469Z,12.40
2018-04-26T12:02:17.094Z,12.20
2018-04-26T12:04:44.600Z,12.20
2018-04-26T12:07:16.072Z,12.10
2018-04-26T12:09:43.563Z,12.00
2018-04-26T12:12:16.134Z,12.00
2018-04-26T12:14:44.098Z,12.00
2018-04-26T12:17:11.603Z,12.10
2018-04-26T12:19:39.078Z,12.10
2018-04-26T12:22:06.591Z,12.30
2018-04-26T12:24:34.063Z,12.40
2018-04-26T12:27:01.904Z,12.60
2018-04-26T12:29:29.454Z,12.70
2018-04-26T12:31:56.980Z,12.90
2018-04-26T12:34:24.462Z,13.10
2018-04-26T12:36:51.982Z,13.30
2018-04-26T12:39:20.235Z,13.60
2018-04-26T12:41:47.966Z,13.60
2018-04-26T12:44:15.480Z,13.70
2018-04-26T12:46:43.738Z,14.00
2018-04-26T12:49:12.002Z,14.00
2018-04-26T12:51:39.462Z,14.10
2018-04-26T12:54:07.125Z,14.10
2018-04-26T12:56:34.624Z,14.00
2018-04-26T12:59:02.107Z,14.00
2018-04-26T13:01:35.026Z,14.00
2018-04-26T13:04:02.519Z,13.80
2018-04-26T13:06:30.075Z,13.70
2018-04-26T13:08:57.578Z,13.40
2018-04-26T13:11:25.335Z,13.10
2018-04-26T13:13:52.843Z,12.90
2018-04-26T13:16:21.080Z,12.40
2018-04-26T13:18:48.595Z,12.40
2018-04-26T13:21:16.376Z,12.30
2018-04-26T13:23:43.783Z,12.00
2018-04-26T13:26:11.255Z,11.70
2018-04-26T13:28:38.831Z,11.10
2018-04-26T13:31:07.069Z,10.50
2018-04-26T13:33:34.561Z,10.00
2018-04-26T13:36:02.037Z,9.70
2018-04-26T13:38:29.546Z,9.40
2018-04-26T13:40:57.010Z,9.20
2018-04-26T13:43:25.258Z,9.10
2018-04-26T13:45:52.785Z,9.00
2018-04-26T13:48:20.283Z,8.90
2018-04-26T13:50:47.759Z,8.60
2018-04-26T13:53:16.018Z,8.20
2018-04-26T13:55:43.519Z,8.20
2018-04-26T13:58:10.986Z,8.00
2018-04-26T14:00:38.491Z,8.00
2018-04-26T14:03:15.974Z,7.90
2018-04-26T14:05:43.439Z,7.90
2018-04-26T14:08:11.007Z,7.90
2018-04-26T14:10:39.272Z,8.00
2018-04-26T14:13:06.738Z,8.00
2018-04-26T14:15:34.989Z,8.20
2018-04-26T14:18:02.476Z,8.20
2018-04-26T14:20:29.961Z,8.30
2018-04-26T14:22:57.489Z,8.40
2018-04-26T14:25:24.935Z,8.50
2018-04-26T14:27:52.483Z,8.60
2018-04-26T14:30:19.967Z,8.80
2018-04-26T14:32:48.440Z,9.00
2018-04-26T14:35:15.999Z,8.90
2018-04-26T14:37:43.504Z,9.00
2018-04-26T14:40:11.006Z,9.10
2018-04-26T14:42:38.622Z,9.10
2018-04-26T14:45:06.111Z,9.10
2018-04-26T14:47:33.583Z,9.10
2018-04-26T14:50:01.080Z,9.00
2018-04-26T14:52:28.762Z,9.00
2018-04-26T14:54:56.240Z,9.00
2018-04-26T14:57:23.755Z,9.00
2018-04-26T14:59:51.229Z,9.10
2018-04-26T15:02:18.696Z,9.00
2018-04-26T15:04:46.877Z,9.10
2018-04-26T15:07:14.367Z,9.10
2018-04-26T15:09:41.895Z,9.10
2018-04-26T15:12:09.615Z,9.10
2018-04-26T15:14:37.114Z,9.10
2018-04-26T15:17:04.723Z,9.20
2018-04-26T15:19:32.980Z,9.40
2018-04-26T15:22:00.458Z,9.40
2018-04-26T15:24:27.959Z,9.40
2018-04-26T15:26:55.500Z,9.50
2018-04-26T15:29:23.044Z,9.50
2018-04-26T15:31:50.567Z,9.50
2018-04-26T15:34:18.805Z,9.50
2018-04-26T15:36:47.021Z,9.50
2018-04-26T15:39:14.515Z,9.80
2018-04-26T15:41:42.342Z,10.80
2018-04-26T15:44:09.875Z,12.20
2018-04-26T15:46:37.403Z,13.40
2018-04-26T15:49:04.877Z,13.60
2018-04-26T15:51:32.396Z,13.20
2018-04-26T15:54:11.736Z,12.60
2018-04-26T15:57:00.924Z,12.00
2018-04-26T15:59:40.364Z,11.70
2018-04-26T16:02:26.294Z,11.40
2018-04-26T16:05:11.388Z,11.10
2018-04-26T16:07:57.388Z,11.00
2018-04-26T16:10:44.000Z,10.60
2018-04-26T16:13:34.287Z,10.60
2018-04-26T16:16:20.049Z,10.50
2018-04-26T16:18:57.393Z,10.50
2018-04-26T16:21:42.816Z,10.30
2018-04-26T16:24:27.923Z,10.20
2018-04-26T16:27:13.047Z,10.10
2018-04-26T16:29:52.222Z,10.10
2018-04-26T16:32:37.375Z,10.00
2018-04-26T16:35:29.636Z,9.90
2018-04-26T16:38:14.775Z,10.20
2018-04-26T16:40:42.254Z,10.20
2018-04-26T16:43:10.692Z,10.30
2018-04-26T16:45:38.959Z,10.30
2018-04-26T16:48:07.247Z,10.20
2018-04-26T16:50:34.923Z,10.10
2018-04-26T16:53:02.455Z,10.00
2018-04-26T16:55:29.970Z,9.90
2018-04-26T16:57:57.449Z,9.90
2018-04-26T17:00:24.913Z,9.90
2018-04-26T17:02:52.614Z,9.90
2018-04-26T17:05:20.104Z,9.80
2018-04-26T17:07:50.139Z,9.80
2018-04-26T17:10:17.608Z,9.80
2018-04-26T17:12:45.320Z,9.90
2018-04-26T17:15:13.605Z,9.90
2018-04-26T17:17:41.748Z,10.10
2018-04-26T17:20:09.269Z,10.10
2018-04-26T17:22:37.456Z,10.20
2018-04-26T17:25:04.956Z,10.30
2018-04-26T17:27:32.475Z,10.30
2018-04-26T17:30:02.748Z,10.30
2018-04-26T17:32:31.007Z,10.30
2018-04-26T17:34:58.522Z,10.30
2018-04-26T17:37:27.716Z,10.30
2018-04-26T17:39:55.200Z,10.30
2018-04-26T17:42:33.044Z,10.30
2018-04-26T17:45:01.016Z,10.30
2018-04-26T17:47:28.653Z,10.30
2018-04-26T17:49:56.147Z,10.30
2018-04-26T17:52:23.887Z,10.30
2018-04-26T17:54:53.756Z,10.30
2018-04-26T17:57:21.544Z,10.30
2018-04-26T17:59:50.850Z,10.30
2018-04-26T18:02:21.606Z,10.30
2018-04-26T18:04:49.620Z,10.30
2018-04-26T18:07:17.590Z,10.30
2018-04-26T18:09:46.088Z,10.30
2018-04-26T18:12:20.835Z,10.30
2018-04-26T18:14:50.215Z,10.30
2018-04-26T18:17:20.658Z,10.30
2018-04-26T18:19:49.014Z,10.10
2018-04-26T18:22:28.078Z,10.00
2018-04-26T18:24:57.299Z,10.00
2018-04-26T18:30:00.507Z,9.90
2018-04-26T18:32:28.687Z,9.80
2018-04-26T18:34:56.472Z,9.70
2018-04-26T18:37:26.773Z,9.60
2018-04-26T18:42:27.481Z,9.60
2018-04-26T18:45:02.399Z,9.60
2018-04-26T18:47:30.138Z,9.60
2018-04-26T18:49:58.935Z,9.60
2018-04-26T18:55:06.208Z,9.60
2018-04-26T18:57:35.651Z,9.70
2018-04-26T19:00:11.412Z,9.70
2018-04-26T19:06:00.416Z,9.70
2018-04-26T19:08:30.007Z,9.60
2018-04-26T19:10:59.056Z,9.60
2018-04-26T19:13:27.151Z,9.60
2018-04-26T19:15:57.990Z,9.60
2018-04-26T19:18:30.087Z,9.50
2018-04-26T19:20:57.846Z,9.60
2018-04-26T19:23:25.412Z,9.60
2018-04-26T19:25:54.726Z,9.60
2018-04-26T19:30:59.342Z,9.60
2018-04-26T19:33:29.992Z,9.50
2018-04-26T19:35:57.547Z,9.60
2018-04-26T19:38:25.033Z,9.50
2018-04-26T19:40:53.988Z,9.60
2018-04-26T19:43:23.524Z,9.50
2018-04-26T19:45:51.052Z,9.60
2018-04-26T19:48:18.620Z,9.50
2018-04-26T19:50:49.467Z,9.50
2018-04-26T19:53:17.274Z,9.40
2018-04-26T19:55:45.223Z,9.40
2018-04-26T19:58:14.977Z,9.40
2018-04-26T20:00:45.422Z,9.30
2018-04-26T20:05:47.052Z,9.30
2018-04-26T20:08:14.583Z,9.30
2018-04-26T20:13:16.432Z,9.30
2018-04-26T20:15:43.944Z,9.30
2018-04-26T20:18:14.780Z,9.20
2018-04-26T20:20:44.813Z,9.20
2018-04-26T20:23:23.907Z,9.20
2018-04-26T20:25:52.556Z,9.10
2018-04-26T20:28:20.325Z,9.00
2018-04-26T20:35:56.241Z,8.90
2018-04-26T20:38:24.038Z,8.90
2018-04-26T20:40:53.911Z,8.80
2018-04-26T20:43:23.183Z,8.80
2018-04-26T20:45:51.366Z,8.80
2018-04-26T20:48:35.087Z,8.80
2018-04-26T20:51:04.803Z,8.90
2018-04-26T20:56:06.386Z,9.00
2018-04-26T20:58:34.561Z,9.00
2018-04-26T21:01:03.274Z,9.10
2018-04-26T21:06:08.028Z,9.20
2018-04-26T21:08:38.121Z,9.20
2018-04-26T21:11:05.754Z,9.20
2018-04-26T21:13:35.291Z,9.20
2018-04-26T21:16:03.469Z,9.20
2018-04-26T21:18:31.683Z,9.20
2018-04-26T21:21:00.003Z,9.20
2018-04-26T21:23:28.828Z,9.10
2018-04-26T21:25:57.202Z,9.20
2018-04-26T21:28:24.738Z,9.10
2018-04-26T21:30:54.717Z,9.10
2018-04-26T21:33:23.192Z,9.10
2018-04-26T21:35:51.591Z,9.00
2018-04-26T21:38:19.960Z,9.00
2018-04-26T21:40:48.306Z,9.00
2018-04-26T21:43:16.747Z,9.00
2018-04-26T21:45:46.619Z,8.90
2018-04-26T21:48:14.634Z,8.90
2018-04-26T21:50:48.500Z,8.70
2018-04-26T21:53:22.011Z,8.70
2018-04-26T21:55:57.265Z,8.70
2018-04-26T21:58:30.425Z,8.60
2018-04-26T22:01:03.615Z,8.50
2018-04-26T22:03:35.729Z,8.50
2018-04-26T22:06:05.118Z,8.50
2018-04-26T22:08:32.904Z,8.50
2018-04-26T22:11:00.404Z,8.50
2018-04-26T22:13:27.923Z,8.50
2018-04-26T22:15:56.194Z,8.40
2018-04-26T22:18:23.695Z,8.40
2018-04-26T22:20:51.210Z,8.30
2018-04-26T22:23:19.458Z,8.20
2018-04-26T22:25:46.977Z,8.20
2018-04-26T22:28:14.471Z,8.20
2018-04-26T22:30:41.943Z,8.10
2018-04-26T22:33:10.231Z,8.10
2018-04-26T22:35:37.704Z,8.10
2018-04-26T22:38:06.113Z,8.00
2018-04-26T22:40:35.033Z,8.00
2018-04-26T22:43:02.547Z,8.00
2018-04-26T22:45:30.035Z,8.00
2018-04-26T22:47:57.759Z,8.00
2018-04-26T22:50:25.246Z,7.90
2018-04-26T22:52:55.044Z,7.90
2018-04-26T22:55:22.524Z,7.90
2018-04-26T22:57:49.996Z,7.90
2018-04-26T23:00:17.468Z,7.90
2018-04-26T23:02:44.980Z,7.90
2018-04-26T23:05:12.467Z,7.90
2018-04-26T23:07:39.938Z,7.90
2018-04-26T23:10:07.429Z,7.90
2018-04-26T23:12:34.891Z,7.90
2018-04-26T23:15:02.372Z,7.90
2018-04-26T23:17:29.867Z,7.90
2018-04-26T23:19:57.365Z,7.90
2018-04-26T23:22:24.867Z,8.00
2018-04-26T23:24:52.330Z,8.10
2018-04-26T23:27:19.799Z,8.10
2018-04-26T23:29:47.296Z,8.20
2018-04-26T23:32:14.759Z,8.30
2018-04-26T23:34:43.199Z,8.40
2018-04-26T23:37:10.671Z,8.40
2018-04-26T23:39:38.927Z,8.50
2018-04-26T23:42:06.383Z,8.50
2018-04-26T23:44:33.866Z,8.50
2018-04-26T23:47:01.374Z,8.50
2018-04-26T23:49:28.848Z,8.60
2018-04-26T23:51:56.466Z,8.50
2018-04-26T23:54:23.947Z,8.60
2018-04-26T23:56:51.420Z,8.60
2018-04-26T23:59:19.017Z,8.60
